sensor_id;sensor_type;location;lat;lon;timestamp;pressure;altitude;pressure_sealevel;temperature;humidity
23339;BME280;11841;49.368;20.962;2023-04-09T00:00:27;96297.00;;;2.54;96.14
23339;BME280;11841;49.368;20.962;2023-04-09T00:03:13;96300.13;;;2.57;96.01
23339;BME280;11841;49.368;20.962;2023-04-09T00:05:58;96300.50;;;2.62;95.82
23339;BME280;11841;49.368;20.962;2023-04-09T00:08:44;96295.44;;;2.69;95.70
23339;BME280;11841;49.368;20.962;2023-04-09T00:11:29;96294.19;;;2.73;95.72
23339;BME280;11841;49.368;20.962;2023-04-09T00:14:15;96293.50;;;2.71;95.42
23339;BME280;11841;49.368;20.962;2023-04-09T00:17:00;96298.06;;;2.69;95.70
23339;BME280;11841;49.368;20.962;2023-04-09T00:19:45;96291.22;;;2.68;95.76
23339;BME280;11841;49.368;20.962;2023-04-09T00:22:31;96300.00;;;2.67;95.59
23339;BME280;11841;49.368;20.962;2023-04-09T00:25:16;96302.34;;;2.70;95.66
23339;BME280;11841;49.368;20.962;2023-04-09T00:28:02;96297.47;;;2.75;95.65
23339;BME280;11841;49.368;20.962;2023-04-09T00:30:47;96288.78;;;2.74;95.46
23339;BME280;11841;49.368;20.962;2023-04-09T00:33:32;96304.34;;;2.76;96.00
23339;BME280;11841;49.368;20.962;2023-04-09T00:36:17;96302.56;;;2.76;95.75
23339;BME280;11841;49.368;20.962;2023-04-09T00:39:03;96294.19;;;2.73;95.59
23339;BME280;11841;49.368;20.962;2023-04-09T00:41:48;96303.97;;;2.71;96.03
23339;BME280;11841;49.368;20.962;2023-04-09T00:44:33;96309.84;;;2.65;96.29
23339;BME280;11841;49.368;20.962;2023-04-09T00:47:19;96305.88;;;2.61;96.73
23339;BME280;11841;49.368;20.962;2023-04-09T00:50:04;96300.50;;;2.62;96.92
23339;BME280;11841;49.368;20.962;2023-04-09T00:52:50;96306.25;;;2.66;96.95
23339;BME280;11841;49.368;20.962;2023-04-09T00:55:38;96308.53;;;2.69;96.99
23339;BME280;11841;49.368;20.962;2023-04-09T00:58:23;96300.34;;;2.64;96.74
23339;BME280;11841;49.368;20.962;2023-04-09T01:01:09;96308.50;;;2.61;97.05
23339;BME280;11841;49.368;20.962;2023-04-09T01:03:54;96298.34;;;2.58;96.94
23339;BME280;11841;49.368;20.962;2023-04-09T01:09:40;96305.16;;;2.51;97.25
23339;BME280;11841;49.368;20.962;2023-04-09T01:12:33;96302.84;;;2.47;97.15
23339;BME280;11841;49.368;20.962;2023-04-09T01:15:30;96302.34;;;2.44;96.85
23339;BME280;11841;49.368;20.962;2023-04-09T01:18:33;96295.44;;;2.43;96.86
23339;BME280;11841;49.368;20.962;2023-04-09T01:21:23;96298.22;;;2.41;97.50
23339;BME280;11841;49.368;20.962;2023-04-09T01:24:20;96298.88;;;2.43;97.36
23339;BME280;11841;49.368;20.962;2023-04-09T01:27:15;96301.19;;;2.46;97.50
23339;BME280;11841;49.368;20.962;2023-04-09T01:30:03;96306.94;;;2.50;97.73
23339;BME280;11841;49.368;20.962;2023-04-09T01:32:50;96300.63;;;2.35;97.62
23339;BME280;11841;49.368;20.962;2023-04-09T01:35:36;96299.88;;;2.25;98.58
23339;BME280;11841;49.368;20.962;2023-04-09T01:38:23;96298.31;;;2.14;98.51
23339;BME280;11841;49.368;20.962;2023-04-09T01:41:14;96305.22;;;2.15;99.26
23339;BME280;11841;49.368;20.962;2023-04-09T01:44:01;96300.94;;;2.14;99.13
23339;BME280;11841;49.368;20.962;2023-04-09T01:46:48;96302.22;;;2.10;99.69
23339;BME280;11841;49.368;20.962;2023-04-09T01:49:34;96300.63;;;2.17;99.44
23339;BME280;11841;49.368;20.962;2023-04-09T01:52:20;96298.75;;;2.27;99.47
23339;BME280;11841;49.368;20.962;2023-04-09T01:55:06;96300.63;;;2.35;99.37
23339;BME280;11841;49.368;20.962;2023-04-09T01:57:51;96303.75;;;2.38;98.75
23339;BME280;11841;49.368;20.962;2023-04-09T02:00:39;96302.63;;;2.41;98.98
23339;BME280;11841;49.368;20.962;2023-04-09T02:03:31;96303.13;;;2.44;99.10
23339;BME280;11841;49.368;20.962;2023-04-09T02:09:40;96307.47;;;2.54;98.44
23339;BME280;11841;49.368;20.962;2023-04-09T02:12:30;96311.44;;;2.58;98.58
23339;BME280;11841;49.368;20.962;2023-04-09T02:15:18;96313.06;;;2.59;98.67
23339;BME280;11841;49.368;20.962;2023-04-09T02:18:26;96304.53;;;2.57;98.72
23339;BME280;11841;49.368;20.962;2023-04-09T02:21:12;96311.44;;;2.40;98.99
23339;BME280;11841;49.368;20.962;2023-04-09T02:23:58;96312.88;;;2.34;99.51
23339;BME280;11841;49.368;20.962;2023-04-09T02:26:43;96310.94;;;2.36;99.49
23339;BME280;11841;49.368;20.962;2023-04-09T02:29:32;96306.69;;;2.35;99.52
23339;BME280;11841;49.368;20.962;2023-04-09T02:32:17;96311.44;;;2.40;99.48
23339;BME280;11841;49.368;20.962;2023-04-09T02:35:03;96304.13;;;2.43;99.72
23339;BME280;11841;49.368;20.962;2023-04-09T02:37:48;96306.44;;;2.46;99.93
23339;BME280;11841;49.368;20.962;2023-04-09T02:40:33;96309.41;;;2.52;99.62
23339;BME280;11841;49.368;20.962;2023-04-09T02:43:18;96310.75;;;2.56;99.62
23339;BME280;11841;49.368;20.962;2023-04-09T02:46:04;96309.94;;;2.55;98.81
23339;BME280;11841;49.368;20.962;2023-04-09T02:48:49;96306.34;;;2.56;98.85
23339;BME280;11841;49.368;20.962;2023-04-09T02:51:35;96305.31;;;2.49;98.95
23339;BME280;11841;49.368;20.962;2023-04-09T02:54:20;96292.91;;;2.51;99.11
23339;BME280;11841;49.368;20.962;2023-04-09T02:57:06;96296.69;;;2.57;99.21
23339;BME280;11841;49.368;20.962;2023-04-09T02:59:51;96290.50;;;2.58;98.78
23339;BME280;11841;49.368;20.962;2023-04-09T03:02:36;96290.84;;;2.63;98.82
23339;BME280;11841;49.368;20.962;2023-04-09T03:05:22;96292.47;;;2.64;98.58
23339;BME280;11841;49.368;20.962;2023-04-09T03:08:07;96290.66;;;2.56;98.52
23339;BME280;11841;49.368;20.962;2023-04-09T03:10:52;96294.53;;;2.52;99.26
23339;BME280;11841;49.368;20.962;2023-04-09T03:13:38;96297.19;;;2.34;99.68
23339;BME280;11841;49.368;20.962;2023-04-09T03:16:24;96292.50;;;2.20;100.00
23339;BME280;11841;49.368;20.962;2023-04-09T03:19:09;96288.22;;;2.19;100.00
23339;BME280;11841;49.368;20.962;2023-04-09T03:21:55;96294.19;;;2.29;100.00
23339;BME280;11841;49.368;20.962;2023-04-09T03:24:40;96289.03;;;2.37;100.00
23339;BME280;11841;49.368;20.962;2023-04-09T03:27:26;96289.69;;;2.39;99.64
23339;BME280;11841;49.368;20.962;2023-04-09T03:30:11;96293.66;;;2.43;99.31
23339;BME280;11841;49.368;20.962;2023-04-09T03:32:56;96288.09;;;2.46;99.43
23339;BME280;11841;49.368;20.962;2023-04-09T03:35:43;96294.84;;;2.49;99.32
23339;BME280;11841;49.368;20.962;2023-04-09T03:38:28;96297.00;;;2.54;99.17
23339;BME280;11841;49.368;20.962;2023-04-09T03:41:14;96293.53;;;2.53;98.76
23339;BME280;11841;49.368;20.962;2023-04-09T03:43:59;96296.16;;;2.53;99.31
23339;BME280;11841;49.368;20.962;2023-04-09T03:46:44;96292.44;;;2.56;99.09
23339;BME280;11841;49.368;20.962;2023-04-09T03:49:30;96291.59;;;2.55;99.15
23339;BME280;11841;49.368;20.962;2023-04-09T03:52:15;96287.34;;;2.54;98.89
23339;BME280;11841;49.368;20.962;2023-04-09T03:55:02;96293.69;;;2.52;98.98
23339;BME280;11841;49.368;20.962;2023-04-09T03:57:47;96298.78;;;2.53;99.74
23339;BME280;11841;49.368;20.962;2023-04-09T04:00:33;96291.75;;;2.54;99.50
23339;BME280;11841;49.368;20.962;2023-04-09T04:03:18;96303.13;;;2.44;99.06
23339;BME280;11841;49.368;20.962;2023-04-09T04:06:03;96302.41;;;2.34;99.88
23339;BME280;11841;49.368;20.962;2023-04-09T04:08:49;96304.06;;;2.35;100.00
23339;BME280;11841;49.368;20.962;2023-04-09T04:11:35;96315.22;;;2.37;100.00
23339;BME280;11841;49.368;20.962;2023-04-09T04:14:20;96325.28;;;2.32;99.83
23339;BME280;11841;49.368;20.962;2023-04-09T04:17:05;96320.97;;;2.23;100.00
23339;BME280;11841;49.368;20.962;2023-04-09T04:19:51;96317.38;;;2.24;100.00
23339;BME280;11841;49.368;20.962;2023-04-09T04:22:36;96315.81;;;2.31;100.00
23339;BME280;11841;49.368;20.962;2023-04-09T04:25:21;96317.53;;;2.40;100.00
23339;BME280;11841;49.368;20.962;2023-04-09T04:28:07;96320.81;;;2.42;100.00
23339;BME280;11841;49.368;20.962;2023-04-09T04:30:52;96313.59;;;2.44;100.00
23339;BME280;11841;49.368;20.962;2023-04-09T04:33:38;96318.84;;;2.44;100.00
23339;BME280;11841;49.368;20.962;2023-04-09T04:36:24;96324.06;;;2.44;100.00
23339;BME280;11841;49.368;20.962;2023-04-09T04:39:10;96325.88;;;2.44;100.00
23339;BME280;11841;49.368;20.962;2023-04-09T04:41:55;96328.66;;;2.42;99.83
23339;BME280;11841;49.368;20.962;2023-04-09T04:44:40;96330.59;;;2.23;100.00
23339;BME280;11841;49.368;20.962;2023-04-09T04:47:26;96332.31;;;2.14;100.00
23339;BME280;11841;49.368;20.962;2023-04-09T04:50:11;96328.81;;;2.06;100.00
23339;BME280;11841;49.368;20.962;2023-04-09T04:52:56;96327.91;;;1.97;100.00
23339;BME280;11841;49.368;20.962;2023-04-09T04:55:41;96329.34;;;1.92;100.00
23339;BME280;11841;49.368;20.962;2023-04-09T04:58:26;96334.72;;;1.90;100.00
23339;BME280;11841;49.368;20.962;2023-04-09T05:01:12;96341.16;;;1.96;100.00
23339;BME280;11841;49.368;20.962;2023-04-09T05:03:57;96339.75;;;2.01;100.00
23339;BME280;11841;49.368;20.962;2023-04-09T05:06:42;96348.19;;;2.13;100.00
23339;BME280;11841;49.368;20.962;2023-04-09T05:09:28;96353.47;;;2.21;100.00
23339;BME280;11841;49.368;20.962;2023-04-09T05:12:13;96349.28;;;2.28;100.00
23339;BME280;11841;49.368;20.962;2023-04-09T05:14:59;96347.88;;;2.33;100.00
23339;BME280;11841;49.368;20.962;2023-04-09T05:17:44;96354.75;;;2.34;100.00
23339;BME280;11841;49.368;20.962;2023-04-09T05:20:29;96342.66;;;2.33;100.00
23339;BME280;11841;49.368;20.962;2023-04-09T05:23:15;96354.53;;;2.28;100.00
23339;BME280;11841;49.368;20.962;2023-04-09T05:26:00;96350.19;;;2.19;100.00
23339;BME280;11841;49.368;20.962;2023-04-09T05:28:45;96354.16;;;2.23;100.00
23339;BME280;11841;49.368;20.962;2023-04-09T05:31:31;96346.53;;;2.29;100.00
23339;BME280;11841;49.368;20.962;2023-04-09T05:34:16;96354.75;;;2.34;100.00
23339;BME280;11841;49.368;20.962;2023-04-09T05:37:01;96354.63;;;2.18;100.00
23339;BME280;11841;49.368;20.962;2023-04-09T05:39:47;96351.63;;;2.13;100.00
23339;BME280;11841;49.368;20.962;2023-04-09T05:42:32;96351.38;;;2.24;100.00
23339;BME280;11841;49.368;20.962;2023-04-09T05:45:17;96354.06;;;2.32;100.00
23339;BME280;11841;49.368;20.962;2023-04-09T05:48:03;96358.88;;;2.37;100.00
23339;BME280;11841;49.368;20.962;2023-04-09T05:50:51;96355.56;;;2.35;100.00
23339;BME280;11841;49.368;20.962;2023-04-09T05:53:39;96354.97;;;2.41;100.00
23339;BME280;11841;49.368;20.962;2023-04-09T05:56:24;96354.97;;;2.41;100.00
23339;BME280;11841;49.368;20.962;2023-04-09T05:59:13;96352.81;;;2.36;100.00
23339;BME280;11841;49.368;20.962;2023-04-09T06:01:58;96359.69;;;2.37;100.00
23339;BME280;11841;49.368;20.962;2023-04-09T06:04:44;96361.78;;;2.34;100.00
23339;BME280;11841;49.368;20.962;2023-04-09T06:07:29;96363.56;;;2.33;100.00
23339;BME280;11841;49.368;20.962;2023-04-09T06:10:14;96380.47;;;2.21;100.00
23339;BME280;11841;49.368;20.962;2023-04-09T06:13:00;96360.38;;;2.22;100.00
23339;BME280;11841;49.368;20.962;2023-04-09T06:15:45;96368.91;;;2.24;100.00
23339;BME280;11841;49.368;20.962;2023-04-09T06:18:30;96368.00;;;2.15;100.00
23339;BME280;11841;49.368;20.962;2023-04-09T06:21:16;96368.94;;;2.14;100.00
23339;BME280;11841;49.368;20.962;2023-04-09T06:24:02;96373.13;;;2.07;100.00
23339;BME280;11841;49.368;20.962;2023-04-09T06:26:47;96377.31;;;2.00;100.00
23339;BME280;11841;49.368;20.962;2023-04-09T06:29:32;96369.91;;;1.96;100.00
23339;BME280;11841;49.368;20.962;2023-04-09T06:32:18;96371.56;;;1.97;100.00
23339;BME280;11841;49.368;20.962;2023-04-09T06:35:04;96373.34;;;1.96;100.00
23339;BME280;11841;49.368;20.962;2023-04-09T06:37:49;96382.84;;;1.97;100.00
23339;BME280;11841;49.368;20.962;2023-04-09T06:40:38;96385.06;;;1.92;100.00
23339;BME280;11841;49.368;20.962;2023-04-09T06:43:23;96381.50;;;1.93;100.00
23339;BME280;11841;49.368;20.962;2023-04-09T06:46:08;96384.28;;;2.09;100.00
23339;BME280;11841;49.368;20.962;2023-04-09T06:48:54;96380.03;;;2.08;100.00
23339;BME280;11841;49.368;20.962;2023-04-09T06:51:39;96386.88;;;2.09;100.00
23339;BME280;11841;49.368;20.962;2023-04-09T06:54:24;96377.47;;;2.16;100.00
23339;BME280;11841;49.368;20.962;2023-04-09T06:57:10;96380.47;;;2.21;100.00
23339;BME280;11841;49.368;20.962;2023-04-09T06:59:55;96379.78;;;2.19;100.00
23339;BME280;11841;49.368;20.962;2023-04-09T07:02:40;96382.94;;;2.23;100.00
23339;BME280;11841;49.368;20.962;2023-04-09T07:05:26;96386.91;;;2.27;100.00
23339;BME280;11841;49.368;20.962;2023-04-09T07:08:11;96392.34;;;2.33;100.00
23339;BME280;11841;49.368;20.962;2023-04-09T07:10:56;96386.34;;;2.41;100.00
23339;BME280;11841;49.368;20.962;2023-04-09T07:13:42;96399.84;;;2.46;100.00
23339;BME280;11841;49.368;20.962;2023-04-09T07:16:27;96395.94;;;2.50;100.00
23339;BME280;11841;49.368;20.962;2023-04-09T07:19:12;96400.59;;;2.56;100.00
23339;BME280;11841;49.368;20.962;2023-04-09T07:21:57;96394.22;;;2.59;100.00
23339;BME280;11841;49.368;20.962;2023-04-09T07:24:43;96391.66;;;2.67;100.00
23339;BME280;11841;49.368;20.962;2023-04-09T07:27:28;96399.28;;;2.78;100.00
23339;BME280;11841;49.368;20.962;2023-04-09T07:30:14;96394.09;;;2.86;100.00
23339;BME280;11841;49.368;20.962;2023-04-09T07:32:59;96397.84;;;2.83;100.00
23339;BME280;11841;49.368;20.962;2023-04-09T07:35:45;96401.94;;;2.86;100.00
23339;BME280;11841;49.368;20.962;2023-04-09T07:38:31;96396.41;;;2.89;100.00
23339;BME280;11841;49.368;20.962;2023-04-09T07:41:16;96397.44;;;2.96;100.00
23339;BME280;11841;49.368;20.962;2023-04-09T07:44:01;96399.97;;;3.05;100.00
23339;BME280;11841;49.368;20.962;2023-04-09T07:46:47;96401.50;;;3.16;100.00
23339;BME280;11841;49.368;20.962;2023-04-09T07:49:35;96400.88;;;3.22;100.00
23339;BME280;11841;49.368;20.962;2023-04-09T07:52:21;96398.16;;;3.31;100.00
23339;BME280;11841;49.368;20.962;2023-04-09T07:55:06;96400.34;;;3.44;100.00
23339;BME280;11841;49.368;20.962;2023-04-09T07:57:52;96399.41;;;3.53;100.00
23339;BME280;11841;49.368;20.962;2023-04-09T08:00:37;96401.09;;;3.62;100.00
23339;BME280;11841;49.368;20.962;2023-04-09T08:03:22;96393.75;;;3.73;100.00
23339;BME280;11841;49.368;20.962;2023-04-09T08:06:08;96400.03;;;3.89;100.00
23339;BME280;11841;49.368;20.962;2023-04-09T08:08:53;96391.72;;;4.01;100.00
23339;BME280;11841;49.368;20.962;2023-04-09T08:11:39;96392.75;;;4.16;100.00
23339;BME280;11841;49.368;20.962;2023-04-09T08:14:24;96385.25;;;4.29;100.00
23339;BME280;11841;49.368;20.962;2023-04-09T08:17:09;96386.41;;;4.43;100.00
23339;BME280;11841;49.368;20.962;2023-04-09T08:19:55;96383.28;;;4.55;100.00
23339;BME280;11841;49.368;20.962;2023-04-09T08:22:40;96386.41;;;4.67;100.00
23339;BME280;11841;49.368;20.962;2023-04-09T08:25:26;96379.66;;;4.80;100.00
23339;BME280;11841;49.368;20.962;2023-04-09T08:28:11;96381.63;;;4.94;100.00
23339;BME280;11841;49.368;20.962;2023-04-09T08:30:56;96387.19;;;5.08;100.00
23339;BME280;11841;49.368;20.962;2023-04-09T08:33:42;96379.31;;;5.16;100.00
23339;BME280;11841;49.368;20.962;2023-04-09T08:36:27;96374.53;;;5.27;100.00
23339;BME280;11841;49.368;20.962;2023-04-09T08:39:14;96375.00;;;5.39;100.00
23339;BME280;11841;49.368;20.962;2023-04-09T08:42:00;96379.88;;;5.58;100.00
23339;BME280;11841;49.368;20.962;2023-04-09T08:44:46;96381.44;;;5.75;100.00
23339;BME280;11841;49.368;20.962;2023-04-09T08:47:32;96382.75;;;5.87;100.00
23339;BME280;11841;49.368;20.962;2023-04-09T08:50:18;96382.53;;;5.96;98.76
23339;BME280;11841;49.368;20.962;2023-04-09T08:53:05;96379.34;;;6.09;97.20
23339;BME280;11841;49.368;20.962;2023-04-09T08:55:52;96381.09;;;6.17;95.49
23339;BME280;11841;49.368;20.962;2023-04-09T08:58:40;96375.31;;;6.21;95.61
23339;BME280;11841;49.368;20.962;2023-04-09T09:01:30;96373.63;;;6.28;94.72
23339;BME280;11841;49.368;20.962;2023-04-09T09:04:16;96375.50;;;6.42;94.50
23339;BME280;11841;49.368;20.962;2023-04-09T09:07:05;96374.78;;;6.56;93.21
23339;BME280;11841;49.368;20.962;2023-04-09T09:09:57;96376.00;;;6.68;92.20
23339;BME280;11841;49.368;20.962;2023-04-09T09:12:43;96384.13;;;6.81;90.26
23339;BME280;11841;49.368;20.962;2023-04-09T09:15:29;96373.88;;;6.86;88.79
23339;BME280;11841;49.368;20.962;2023-04-09T09:18:16;96378.97;;;6.88;87.20
23339;BME280;11841;49.368;20.962;2023-04-09T09:21:16;96376.31;;;6.88;86.40
23339;BME280;11841;49.368;20.962;2023-04-09T09:24:15;96378.69;;;6.97;85.22
23339;BME280;11841;49.368;20.962;2023-04-09T09:27:01;96378.75;;;7.12;85.21
23339;BME280;11841;49.368;20.962;2023-04-09T09:29:47;96377.50;;;7.22;83.96
23339;BME280;11841;49.368;20.962;2023-04-09T09:32:32;96372.97;;;7.31;87.08
23339;BME280;11841;49.368;20.962;2023-04-09T09:35:19;96373.97;;;7.45;85.51
23339;BME280;11841;49.368;20.962;2023-04-09T09:38:04;96370.88;;;7.56;84.20
23339;BME280;11841;49.368;20.962;2023-04-09T09:40:49;96378.06;;;7.62;82.33
23339;BME280;11841;49.368;20.962;2023-04-09T09:43:44;96369.69;;;7.73;82.49
23339;BME280;11841;49.368;20.962;2023-04-09T09:46:33;96361.66;;;7.81;80.75
23339;BME280;11841;49.368;20.962;2023-04-09T09:49:19;96368.22;;;7.85;79.10
23339;BME280;11841;49.368;20.962;2023-04-09T09:52:08;96365.66;;;7.91;80.51
23339;BME280;11841;49.368;20.962;2023-04-09T09:54:53;96369.00;;;8.00;78.29
23339;BME280;11841;49.368;20.962;2023-04-09T09:57:41;96362.63;;;8.09;75.34
23339;BME280;11841;49.368;20.962;2023-04-09T10:00:30;96353.75;;;8.16;77.28
23339;BME280;11841;49.368;20.962;2023-04-09T10:03:22;96359.16;;;8.23;76.48
23339;BME280;11841;49.368;20.962;2023-04-09T10:06:10;96360.81;;;8.24;77.00
23339;BME280;11841;49.368;20.962;2023-04-09T10:08:56;96354.41;;;8.33;76.24
23339;BME280;11841;49.368;20.962;2023-04-09T10:11:42;96360.94;;;8.37;75.60
23339;BME280;11841;49.368;20.962;2023-04-09T10:14:33;96358.41;;;8.29;75.47
23339;BME280;11841;49.368;20.962;2023-04-09T10:17:20;96346.09;;;8.21;74.44
23339;BME280;11841;49.368;20.962;2023-04-09T10:20:39;96351.22;;;8.23;74.89
23339;BME280;11841;49.368;20.962;2023-04-09T10:23:47;96350.94;;;8.32;75.43
23339;BME280;11841;49.368;20.962;2023-04-09T10:26:34;96342.16;;;8.46;74.16
23339;BME280;11841;49.368;20.962;2023-04-09T10:29:27;96346.44;;;8.47;73.67
23339;BME280;11841;49.368;20.962;2023-04-09T10:32:18;96342.22;;;8.53;75.63
23339;BME280;11841;49.368;20.962;2023-04-09T10:35:08;96339.97;;;8.50;73.88
23339;BME280;11841;49.368;20.962;2023-04-09T10:37:53;96336.16;;;8.59;75.50
23339;BME280;11841;49.368;20.962;2023-04-09T10:40:46;96335.16;;;8.60;72.19
23339;BME280;11841;49.368;20.962;2023-04-09T10:43:35;96342.13;;;8.68;72.57
23339;BME280;11841;49.368;20.962;2023-04-09T10:46:33;96333.22;;;8.69;70.71
23339;BME280;11841;49.368;20.962;2023-04-09T10:52:09;96330.81;;;8.74;68.95
23339;BME280;11841;49.368;20.962;2023-04-09T10:54:56;96335.28;;;8.73;69.26
23339;BME280;11841;49.368;20.962;2023-04-09T10:57:41;96335.91;;;8.75;69.82
23339;BME280;11841;49.368;20.962;2023-04-09T11:00:26;96335.16;;;8.81;70.02
23339;BME280;11841;49.368;20.962;2023-04-09T11:03:26;96342.56;;;8.92;69.93
23339;BME280;11841;49.368;20.962;2023-04-09T11:06:18;96342.00;;;8.97;68.46
23339;BME280;11841;49.368;20.962;2023-04-09T11:09:04;96339.72;;;8.94;68.45
23339;BME280;11841;49.368;20.962;2023-04-09T11:11:52;96345.97;;;8.86;69.50
23339;BME280;11841;49.368;20.962;2023-04-09T11:14:38;96336.41;;;8.85;70.24
23339;BME280;11841;49.368;20.962;2023-04-09T11:17:24;96343.94;;;8.88;71.14
23339;BME280;11841;49.368;20.962;2023-04-09T11:20:09;96349.88;;;8.90;71.09
23339;BME280;11841;49.368;20.962;2023-04-09T11:22:55;96348.59;;;8.86;69.82
23339;BME280;11841;49.368;20.962;2023-04-09T11:25:41;96346.34;;;8.83;69.93
23339;BME280;11841;49.368;20.962;2023-04-09T11:28:26;96351.69;;;8.90;71.49
23339;BME280;11841;49.368;20.962;2023-04-09T11:31:11;96351.75;;;8.96;69.97
23339;BME280;11841;49.368;20.962;2023-04-09T11:33:57;96350.13;;;8.95;70.91
23339;BME280;11841;49.368;20.962;2023-04-09T11:36:42;96353.19;;;8.99;71.03
23339;BME280;11841;49.368;20.962;2023-04-09T11:39:27;96355.06;;;9.05;69.83
23339;BME280;11841;49.368;20.962;2023-04-09T11:42:16;96355.06;;;9.05;69.54
23339;BME280;11841;49.368;20.962;2023-04-09T11:45:02;96351.03;;;9.09;68.72
23339;BME280;11841;49.368;20.962;2023-04-09T11:47:48;96348.19;;;9.10;67.39
23339;BME280;11841;49.368;20.962;2023-04-09T11:50:35;96352.88;;;9.08;66.65
23339;BME280;11841;49.368;20.962;2023-04-09T11:53:22;96354.28;;;9.04;66.20
23339;BME280;11841;49.368;20.962;2023-04-09T11:56:09;96356.69;;;8.99;65.83
23339;BME280;11841;49.368;20.962;2023-04-09T11:58:54;96352.19;;;9.00;65.72
23339;BME280;11841;49.368;20.962;2023-04-09T12:01:39;96355.25;;;9.03;66.47
23339;BME280;11841;49.368;20.962;2023-04-09T12:04:25;96355.50;;;9.08;66.21
23339;BME280;11841;49.368;20.962;2023-04-09T12:07:11;96358.00;;;9.16;68.05
23339;BME280;11841;49.368;20.962;2023-04-09T12:10:02;96357.88;;;9.24;68.69
23339;BME280;11841;49.368;20.962;2023-04-09T12:12:48;96358.50;;;9.26;68.02
23339;BME280;11841;49.368;20.962;2023-04-09T12:15:36;96356.09;;;9.31;67.67
23339;BME280;11841;49.368;20.962;2023-04-09T12:18:22;96354.25;;;9.32;68.02
23339;BME280;11841;49.368;20.962;2023-04-09T12:21:07;96354.06;;;9.33;67.60
23339;BME280;11841;49.368;20.962;2023-04-09T12:23:52;96352.03;;;9.35;68.67
23339;BME280;11841;49.368;20.962;2023-04-09T12:26:38;96346.19;;;9.40;68.74
23339;BME280;11841;49.368;20.962;2023-04-09T12:29:23;96340.31;;;9.44;67.66
23339;BME280;11841;49.368;20.962;2023-04-09T12:32:10;96343.53;;;9.40;66.26
23339;BME280;11841;49.368;20.962;2023-04-09T12:34:55;96346.34;;;9.38;66.58
23339;BME280;11841;49.368;20.962;2023-04-09T12:37:41;96341.31;;;9.43;67.96
23339;BME280;11841;49.368;20.962;2023-04-09T12:40:27;96352.94;;;9.49;68.09
23339;BME280;11841;49.368;20.962;2023-04-09T12:43:13;96346.47;;;9.51;67.99
23339;BME280;11841;49.368;20.962;2023-04-09T12:45:58;96351.34;;;9.54;68.04
23339;BME280;11841;49.368;20.962;2023-04-09T12:48:44;96352.19;;;9.55;67.57
23339;BME280;11841;49.368;20.962;2023-04-09T12:51:30;96349.34;;;9.56;67.99
23339;BME280;11841;49.368;20.962;2023-04-09T12:54:16;96347.09;;;9.53;67.22
23339;BME280;11841;49.368;20.962;2023-04-09T12:57:01;96345.41;;;9.46;67.17
23339;BME280;11841;49.368;20.962;2023-04-09T12:59:46;96338.06;;;9.41;67.17
23339;BME280;11841;49.368;20.962;2023-04-09T13:02:32;96343.78;;;9.45;67.79
23339;BME280;11841;49.368;20.962;2023-04-09T13:05:18;96350.88;;;9.44;68.63
23339;BME280;11841;49.368;20.962;2023-04-09T13:08:03;96344.22;;;9.48;68.87
23339;BME280;11841;49.368;20.962;2023-04-09T13:10:49;96348.47;;;9.49;68.35
23339;BME280;11841;49.368;20.962;2023-04-09T13:13:34;96347.44;;;9.50;68.76
23339;BME280;11841;49.368;20.962;2023-04-09T13:16:19;96349.53;;;9.55;68.56
23339;BME280;11841;49.368;20.962;2023-04-09T13:19:05;96348.09;;;9.52;67.83
23339;BME280;11841;49.368;20.962;2023-04-09T13:21:51;96347.63;;;9.42;67.60
23339;BME280;11841;49.368;20.962;2023-04-09T13:24:37;96344.13;;;9.42;68.62
23339;BME280;11841;49.368;20.962;2023-04-09T13:27:22;96343.97;;;9.43;68.77
23339;BME280;11841;49.368;20.962;2023-04-09T13:30:08;96333.78;;;9.47;69.66
23339;BME280;11841;49.368;20.962;2023-04-09T13:32:53;96337.47;;;9.46;68.53
23339;BME280;11841;49.368;20.962;2023-04-09T13:35:39;96340.31;;;9.44;69.19
23339;BME280;11841;49.368;20.962;2023-04-09T13:38:25;96338.09;;;9.48;68.82
23339;BME280;11841;49.368;20.962;2023-04-09T13:41:10;96339.47;;;9.44;68.54
23339;BME280;11841;49.368;20.962;2023-04-09T13:43:55;96335.00;;;9.44;68.21
23339;BME280;11841;49.368;20.962;2023-04-09T13:46:42;96338.69;;;9.43;67.71
23339;BME280;11841;49.368;20.962;2023-04-09T13:49:27;96335.00;;;9.44;67.64
23339;BME280;11841;49.368;20.962;2023-04-09T13:52:14;96336.59;;;9.39;67.71
23339;BME280;11841;49.368;20.962;2023-04-09T13:54:59;96339.88;;;9.41;67.17
23339;BME280;11841;49.368;20.962;2023-04-09T13:57:45;96343.53;;;9.40;66.57
23339;BME280;11841;49.368;20.962;2023-04-09T14:00:31;96339.84;;;9.34;65.50
23339;BME280;11841;49.368;20.962;2023-04-09T14:03:16;96342.63;;;9.26;66.05
23339;BME280;11841;49.368;20.962;2023-04-09T14:06:01;96332.41;;;9.23;66.24
23339;BME280;11841;49.368;20.962;2023-04-09T14:08:47;96333.69;;;9.27;65.58
23339;BME280;11841;49.368;20.962;2023-04-09T14:11:32;96339.34;;;9.24;65.67
23339;BME280;11841;49.368;20.962;2023-04-09T14:14:17;96333.88;;;9.26;65.45
23339;BME280;11841;49.368;20.962;2023-04-09T14:17:03;96328.78;;;9.24;65.75
23339;BME280;11841;49.368;20.962;2023-04-09T14:19:49;96328.34;;;9.21;65.97
23339;BME280;11841;49.368;20.962;2023-04-09T14:22:34;96333.44;;;9.22;66.00
23339;BME280;11841;49.368;20.962;2023-04-09T14:25:22;96332.81;;;9.20;66.29
23339;BME280;11841;49.368;20.962;2023-04-09T14:28:07;96322.03;;;9.22;66.04
23339;BME280;11841;49.368;20.962;2023-04-09T14:30:52;96328.38;;;9.27;66.15
23339;BME280;11841;49.368;20.962;2023-04-09T14:33:40;96320.63;;;9.26;66.74
23339;BME280;11841;49.368;20.962;2023-04-09T14:36:25;96325.34;;;9.30;66.75
23339;BME280;11841;49.368;20.962;2023-04-09T14:39:10;96313.34;;;9.28;66.79
23339;BME280;11841;49.368;20.962;2023-04-09T14:41:56;96321.47;;;9.26;67.28
23339;BME280;11841;49.368;20.962;2023-04-09T14:44:41;96313.28;;;9.21;67.30
23339;BME280;11841;49.368;20.962;2023-04-09T14:47:27;96319.59;;;9.20;66.99